sensor_id;sensor_type;location;lat;lon;timestamp;pressure;altitude;pressure_sealevel;temperature;humidity
20145;BME280;10233;50.814;6.590;2023-05-12T00:00:46;100135.63;;;13.68;100.00
20145;BME280;10233;50.814;6.590;2023-05-12T00:01:47;100133.53;;;13.70;100.00
20145;BME280;10233;50.814;6.590;2023-05-12T00:02:48;100136.47;;;13.69;100.00
20145;BME280;10233;50.814;6.590;2023-05-12T00:03:49;100137.47;;;13.68;100.00
20145;BME280;10233;50.814;6.590;2023-05-12T00:04:52;100137.25;;;13.69;100.00
20145;BME280;10233;50.814;6.590;2023-05-12T00:05:53;100136.31;;;13.64;100.00
20145;BME280;10233;50.814;6.590;2023-05-12T00:06:54;100128.53;;;13.62;100.00
20145;BME280;10233;50.814;6.590;2023-05-12T00:07:54;100130.50;;;13.67;100.00
20145;BME280;10233;50.814;6.590;2023-05-12T00:08:55;100136.06;;;13.65;100.00
20145;BME280;10233;50.814;6.590;2023-05-12T00:09:56;100134.78;;;13.56;100.00
20145;BME280;10233;50.814;6.590;2023-05-12T00:10:57;100131.97;;;13.51;100.00
20145;BME280;10233;50.814;6.590;2023-05-12T00:11:58;100132.09;;;13.56;100.00
20145;BME280;10233;50.814;6.590;2023-05-12T00:12:58;100136.41;;;13.57;100.00
20145;BME280;10233;50.814;6.590;2023-05-12T00:13:59;100126.28;;;13.59;100.00
20145;BME280;10233;50.814;6.590;2023-05-12T00:15:00;100132.69;;;13.58;100.00
20145;BME280;10233;50.814;6.590;2023-05-12T00:16:01;100126.97;;;13.55;100.00
20145;BME280;10233;50.814;6.590;2023-05-12T00:17:03;100130.00;;;13.58;100.00
20145;BME280;10233;50.814;6.590;2023-05-12T00:18:04;100126.75;;;13.56;100.00
20145;BME280;10233;50.814;6.590;2023-05-12T00:19:04;100126.38;;;13.53;100.00
20145;BME280;10233;50.814;6.590;2023-05-12T00:20:05;100122.91;;;13.52;100.00
20145;BME280;10233;50.814;6.590;2023-05-12T00:21:06;100123.25;;;13.56;100.00
20145;BME280;10233;50.814;6.590;2023-05-12T00:22:10;100121.03;;;13.53;100.00
20145;BME280;10233;50.814;6.590;2023-05-12T00:23:11;100124.16;;;13.50;100.00
20145;BME280;10233;50.814;6.590;2023-05-12T00:24:13;100123.13;;;13.51;100.00
20145;BME280;10233;50.814;6.590;2023-05-12T00:25:13;100123.94;;;13.51;100.00
20145;BME280;10233;50.814;6.590;2023-05-12T00:26:15;100120.81;;;13.54;100.00
20145;BME280;10233;50.814;6.590;2023-05-12T00:27:17;100116.50;;;13.53;100.00
20145;BME280;10233;50.814;6.590;2023-05-12T00:28:19;100115.78;;;13.46;100.00
20145;BME280;10233;50.814;6.590;2023-05-12T00:29:20;100117.13;;;13.37;100.00
20145;BME280;10233;50.814;6.590;2023-05-12T00:30:20;100110.88;;;13.43;100.00
20145;BME280;10233;50.814;6.590;2023-05-12T00:31:21;100116.00;;;13.45;100.00
20145;BME280;10233;50.814;6.590;2023-05-12T00:32:22;100111.94;;;13.42;100.00
20145;BME280;10233;50.814;6.590;2023-05-12T00:33:23;100114.59;;;13.42;100.00
20145;BME280;10233;50.814;6.590;2023-05-12T00:34:24;100110.13;;;13.36;100.00
20145;BME280;10233;50.814;6.590;2023-05-12T00:35:24;100110.94;;;13.37;100.00
20145;BME280;10233;50.814;6.590;2023-05-12T00:36:25;100114.44;;;13.37;100.00
20145;BME280;10233;50.814;6.590;2023-05-12T00:37:26;100113.84;;;13.35;100.00
20145;BME280;10233;50.814;6.590;2023-05-12T00:38:27;100110.59;;;13.33;100.00
20145;BME280;10233;50.814;6.590;2023-05-12T00:39:28;100109.53;;;13.34;100.00
20145;BME280;10233;50.814;6.590;2023-05-12T00:40:28;100114.19;;;13.39;100.00
20145;BME280;10233;50.814;6.590;2023-05-12T00:41:29;100109.25;;;13.42;100.00
20145;BME280;10233;50.814;6.590;2023-05-12T00:42:33;100111.31;;;13.40;100.00
20145;BME280;10233;50.814;6.590;2023-05-12T00:43:34;100114.97;;;13.46;100.00
20145;BME280;10233;50.814;6.590;2023-05-12T00:44:34;100109.09;;;13.37;100.00
20145;BME280;10233;50.814;6.590;2023-05-12T00:45:36;100119.78;;;13.37;100.00
20145;BME280;10233;50.814;6.590;2023-05-12T00:46:37;100117.84;;;13.44;100.00
20145;BME280;10233;50.814;6.590;2023-05-12T00:47:38;100114.44;;;13.37;100.00
20145;BME280;10233;50.814;6.590;2023-05-12T00:48:39;100115.72;;;13.35;100.00
20145;BME280;10233;50.814;6.590;2023-05-12T00:49:40;100116.06;;;13.38;100.00
20145;BME280;10233;50.814;6.590;2023-05-12T00:50:42;100114.59;;;13.42;100.00
20145;BME280;10233;50.814;6.590;2023-05-12T00:51:42;100117.13;;;13.37;100.00
20145;BME280;10233;50.814;6.590;2023-05-12T00:52:43;100122.00;;;13.40;100.00
20145;BME280;10233;50.814;6.590;2023-05-12T00:53:44;100112.97;;;13.41;100.00
20145;BME280;10233;50.814;6.590;2023-05-12T00:54:45;100104.28;;;13.46;100.00
20145;BME280;10233;50.814;6.590;2023-05-12T00:55:47;100102.88;;;13.43;100.00
20145;BME280;10233;50.814;6.590;2023-05-12T00:56:48;100108.78;;;13.45;100.00
20145;BME280;10233;50.814;6.590;2023-05-12T00:57:49;100107.63;;;13.41;100.00
20145;BME280;10233;50.814;6.590;2023-05-12T00:58:51;100107.63;;;13.41;100.00
20145;BME280;10233;50.814;6.590;2023-05-12T00:59:53;100110.66;;;13.45;100.00
20145;BME280;10233;50.814;6.590;2023-05-12T01:00:54;100116.22;;;13.43;100.00
20145;BME280;10233;50.814;6.590;2023-05-12T01:01:56;100106.13;;;13.45;100.00
20145;BME280;10233;50.814;6.590;2023-05-12T01:02:58;100112.50;;;13.44;100.00
20145;BME280;10233;50.814;6.590;2023-05-12T01:04:01;100105.09;;;13.46;100.00
20145;BME280;10233;50.814;6.590;2023-05-12T01:05:03;100108.22;;;13.43;100.00
20145;BME280;10233;50.814;6.590;2023-05-12T01:06:25;100109.03;;;13.44;100.00
20145;BME280;10233;50.814;6.590;2023-05-12T01:07:31;100106.13;;;13.45;100.00
20145;BME280;10233;50.814;6.590;2023-05-12T01:08:33;100105.38;;;13.56;100.00
20145;BME280;10233;50.814;6.590;2023-05-12T01:09:35;100102.44;;;13.46;100.00
20145;BME280;10233;50.814;6.590;2023-05-12T01:10:36;100104.72;;;13.43;100.00
20145;BME280;10233;50.814;6.590;2023-05-12T01:11:43;100106.81;;;13.41;100.00
20145;BME280;10233;50.814;6.590;2023-05-12T01:12:44;100102.44;;;13.46;100.00
20145;BME280;10233;50.814;6.590;2023-05-12T01:13:44;100098.25;;;13.50;100.00
20145;BME280;10233;50.814;6.590;2023-05-12T01:14:46;100096.47;;;13.44;100.00
20145;BME280;10233;50.814;6.590;2023-05-12T01:15:47;100096.94;;;13.41;100.00
20145;BME280;10233;50.814;6.590;2023-05-12T01:16:51;100097.31;;;13.45;100.00
20145;BME280;10233;50.814;6.590;2023-05-12T01:17:57;100091.13;;;13.44;100.00
20145;BME280;10233;50.814;6.590;2023-05-12T01:19:04;100092.63;;;13.40;100.00
20145;BME280;10233;50.814;6.590;2023-05-12T01:20:08;100095.28;;;13.40;100.00
20145;BME280;10233;50.814;6.590;2023-05-12T01:21:11;100093.00;;;13.44;100.00
20145;BME280;10233;50.814;6.590;2023-05-12T01:22:12;100094.84;;;13.43;100.00
20145;BME280;10233;50.814;6.590;2023-05-12T01:23:17;100092.63;;;13.40;100.00
20145;BME280;10233;50.814;6.590;2023-05-12T01:24:19;100092.41;;;13.42;100.00
20145;BME280;10233;50.814;6.590;2023-05-12T01:25:22;100093.81;;;13.44;100.00
20145;BME280;10233;50.814;6.590;2023-05-12T01:26:24;100091.50;;;13.48;100.00
20145;BME280;10233;50.814;6.590;2023-05-12T01:27:26;100085.38;;;13.47;100.00
20145;BME280;10233;50.814;6.590;2023-05-12T01:28:30;100089.16;;;13.40;100.00
20145;BME280;10233;50.814;6.590;2023-05-12T01:29:31;100085.88;;;13.38;100.00
20145;BME280;10233;50.814;6.590;2023-05-12T01:30:32;100085.44;;;13.41;100.00
20145;BME280;10233;50.814;6.590;2023-05-12T01:31:35;100090.56;;;13.42;100.00
20145;BME280;10233;50.814;6.590;2023-05-12T01:32:37;100084.19;;;13.43;100.00
20145;BME280;10233;50.814;6.590;2023-05-12T01:33:41;100086.91;;;13.37;100.00
20145;BME280;10233;50.814;6.590;2023-05-12T01:34:42;100082.16;;;13.39;100.00
20145;BME280;10233;50.814;6.590;2023-05-12T01:35:43;100080.31;;;13.39;100.00
20145;BME280;10233;50.814;6.590;2023-05-12T01:36:44;100083.81;;;13.40;100.00
20145;BME280;10233;50.814;6.590;2023-05-12T01:37:44;100078.47;;;13.40;100.00
20145;BME280;10233;50.814;6.590;2023-05-12T01:38:45;100086.84;;;13.43;100.00
20145;BME280;10233;50.814;6.590;2023-05-12T01:39:46;100081.66;;;13.48;100.00
20145;BME280;10233;50.814;6.590;2023-05-12T01:40:52;100086.16;;;13.48;100.00
20145;BME280;10233;50.814;6.590;2023-05-12T01:41:54;100085.59;;;13.46;100.00
20145;BME280;10233;50.814;6.590;2023-05-12T01:42:56;100078.63;;;13.45;100.00
20145;BME280;10233;50.814;6.590;2023-05-12T01:43:57;100080.94;;;13.41;100.00
20145;BME280;10233;50.814;6.590;2023-05-12T01:44:59;100073.94;;;13.40;100.00
20145;BME280;10233;50.814;6.590;2023-05-12T01:46:01;100077.44;;;13.41;100.00
20145;BME280;10233;50.814;6.590;2023-05-12T01:47:03;100080.53;;;13.38;100.00
20145;BME280;10233;50.814;6.590;2023-05-12T01:48:06;100081.34;;;13.38;100.00
20145;BME280;10233;50.814;6.590;2023-05-12T01:49:06;100076.59;;;13.40;100.00
20145;BME280;10233;50.814;6.590;2023-05-12T01:50:08;100080.47;;;13.44;100.00
20145;BME280;10233;50.814;6.590;2023-05-12T01:51:09;100079.88;;;13.42;100.00
20145;BME280;10233;50.814;6.590;2023-05-12T01:52:10;100078.84;;;13.43;100.00
20145;BME280;10233;50.814;6.590;2023-05-12T01:53:11;100079.28;;;13.40;100.00
20145;BME280;10233;50.814;6.590;2023-05-12T01:54:12;100074.16;;;13.39;100.00
20145;BME280;10233;50.814;6.590;2023-05-12T01:55:12;100076.38;;;13.42;100.00
20145;BME280;10233;50.814;6.590;2023-05-12T01:56:24;100072.31;;;13.39;100.00
20145;BME280;10233;50.814;6.590;2023-05-12T01:57:25;100068.38;;;13.42;100.00
20145;BME280;10233;50.814;6.590;2023-05-12T01:58:29;100071.88;;;13.42;100.00
20145;BME280;10233;50.814;6.590;2023-05-12T01:59:31;100073.06;;;13.46;100.00
20145;BME280;10233;50.814;6.590;2023-05-12T02:00:33;100071.41;;;13.45;100.00
20145;BME280;10233;50.814;6.590;2023-05-12T02:01:35;100067.78;;;13.40;100.00
20145;BME280;10233;50.814;6.590;2023-05-12T02:02:36;100068.16;;;13.43;100.00
20145;BME280;10233;50.814;6.590;2023-05-12T02:03:37;100068.59;;;13.40;100.00
20145;BME280;10233;50.814;6.590;2023-05-12T02:04:43;100066.97;;;13.39;100.00
20145;BME280;10233;50.814;6.590;2023-05-12T02:05:43;100058.50;;;13.42;100.00
20145;BME280;10233;50.814;6.590;2023-05-12T02:06:44;100070.97;;;13.48;100.00
20145;BME280;10233;50.814;6.590;2023-05-12T02:07:45;100067.47;;;13.48;100.00
20145;BME280;10233;50.814;6.590;2023-05-12T02:08:47;100066.06;;;13.45;100.00
20145;BME280;10233;50.814;6.590;2023-05-12T02:09:47;100067.09;;;13.44;100.00
20145;BME280;10233;50.814;6.590;2023-05-12T02:10:48;100067.72;;;13.46;100.00
20145;BME280;10233;50.814;6.590;2023-05-12T02:11:49;100070.00;;;13.43;100.00
20145;BME280;10233;50.814;6.590;2023-05-12T02:12:49;100066.75;;;13.41;100.00
20145;BME280;10233;50.814;6.590;2023-05-12T02:13:50;100054.22;;;13.41;100.00
20145;BME280;10233;50.814;6.590;2023-05-12T02:14:52;100062.38;;;13.46;100.00
20145;BME280;10233;50.814;6.590;2023-05-12T02:15:52;100055.00;;;13.42;100.00
20145;BME280;10233;50.814;6.590;2023-05-12T02:16:53;100054.78;;;13.43;100.00
20145;BME280;10233;50.814;6.590;2023-05-12T02:17:57;100052.19;;;13.37;100.00
20145;BME280;10233;50.814;6.590;2023-05-12T02:18:58;100050.09;;;13.39;100.00
20145;BME280;10233;50.814;6.590;2023-05-12T02:19:59;100053.31;;;13.47;100.00
20145;BME280;10233;50.814;6.590;2023-05-12T02:21:00;100054.22;;;13.41;100.00
20145;BME280;10233;50.814;6.590;2023-05-12T02:22:03;100049.00;;;13.46;100.00
20145;BME280;10233;50.814;6.590;2023-05-12T02:23:03;100047.97;;;13.47;100.00
20145;BME280;10233;50.814;6.590;2023-05-12T02:24:06;100047.59;;;13.44;100.00
20145;BME280;10233;50.814;6.590;2023-05-12T02:25:08;100048.88;;;13.41;100.00
20145;BME280;10233;50.814;6.590;2023-05-12T02:26:09;100044.69;;;13.45;100.00
20145;BME280;10233;50.814;6.590;2023-05-12T02:27:10;100038.19;;;13.41;100.00
20145;BME280;10233;50.814;6.590;2023-05-12T02:28:11;100038.34;;;13.46;100.00
20145;BME280;10233;50.814;6.590;2023-05-12T02:29:13;100039.00;;;13.42;100.00
20145;BME280;10233;50.814;6.590;2023-05-12T02:30:13;100035.53;;;13.41;100.00
20145;BME280;10233;50.814;6.590;2023-05-12T02:31:14;100035.53;;;13.41;100.00
20145;BME280;10233;50.814;6.590;2023-05-12T02:32:15;100037.38;;;13.41;100.00
20145;BME280;10233;50.814;6.590;2023-05-12T02:33:20;100036.31;;;13.42;100.00
20145;BME280;10233;50.814;6.590;2023-05-12T02:34:21;100036.94;;;13.44;100.00
20145;BME280;10233;50.814;6.590;2023-05-12T02:35:21;100030.31;;;13.46;100.00
20145;BME280;10233;50.814;6.590;2023-05-12T02:36:22;100034.84;;;13.46;100.00
20145;BME280;10233;50.814;6.590;2023-05-12T02:37:23;100030.31;;;13.46;100.00
20145;BME280;10233;50.814;6.590;2023-05-12T02:38:24;100034.00;;;13.45;100.00
20145;BME280;10233;50.814;6.590;2023-05-12T02:39:25;100036.25;;;13.48;100.00
20145;BME280;10233;50.814;6.590;2023-05-12T02:40:25;100041.00;;;13.46;100.00
20145;BME280;10233;50.814;6.590;2023-05-12T02:41:26;100038.91;;;13.48;100.00
20145;BME280;10233;50.814;6.590;2023-05-12T02:42:27;100031.59;;;13.44;100.00
20145;BME280;10233;50.814;6.590;2023-05-12T02:43:30;100038.69;;;13.50;100.00
20145;BME280;10233;50.814;6.590;2023-05-12T02:44:31;100038.69;;;13.50;100.00
20145;BME280;10233;50.814;6.590;2023-05-12T02:45:32;100042.91;;;13.57;100.00
20145;BME280;10233;50.814;6.590;2023-05-12T02:46:33;100038.75;;;13.61;100.00
20145;BME280;10233;50.814;6.590;2023-05-12T02:47:33;100034.19;;;13.62;100.00
20145;BME280;10233;50.814;6.590;2023-05-12T02:48:34;100037.34;;;13.59;100.00
20145;BME280;10233;50.814;6.590;2023-05-12T02:49:35;100039.91;;;13.65;100.00
20145;BME280;10233;50.814;6.590;2023-05-12T02:50:36;100042.22;;;13.62;100.00
20145;BME280;10233;50.814;6.590;2023-05-12T02:51:37;100042.91;;;13.57;100.00
20145;BME280;10233;50.814;6.590;2023-05-12T02:52:37;100044.09;;;13.61;100.00
20145;BME280;10233;50.814;6.590;2023-05-12T02:53:38;100046.50;;;13.63;100.00
20145;BME280;10233;50.814;6.590;2023-05-12T02:54:38;100043.97;;;13.68;100.00
20145;BME280;10233;50.814;6.590;2023-05-12T02:55:39;100045.25;;;13.65;100.00
20145;BME280;10233;50.814;6.590;2023-05-12T02:56:40;100051.19;;;13.67;100.00
20145;BME280;10233;50.814;6.590;2023-05-12T02:57:41;100045.16;;;13.72;100.00
20145;BME280;10233;50.814;6.590;2023-05-12T02:58:42;100050.06;;;13.75;100.00
20145;BME280;10233;50.814;6.590;2023-05-12T02:59:43;100046.69;;;13.79;100.00
20145;BME280;10233;50.814;6.590;2023-05-12T03:00:43;100047.06;;;13.83;100.00
20145;BME280;10233;50.814;6.590;2023-05-12T03:01:44;100045.81;;;13.85;100.00
20145;BME280;10233;50.814;6.590;2023-05-12T03:02:45;100047.78;;;13.90;100.00
20145;BME280;10233;50.814;6.590;2023-05-12T03:03:45;100048.38;;;14.03;100.00
20145;BME280;10233;50.814;6.590;2023-05-12T03:04:46;100050.72;;;14.00;100.00
20145;BME280;10233;50.814;6.590;2023-05-12T03:05:46;100044.44;;;14.06;100.00
20145;BME280;10233;50.814;6.590;2023-05-12T03:06:48;100047.47;;;14.09;100.00
20145;BME280;10233;50.814;6.590;2023-05-12T03:07:49;100041.53;;;14.07;100.00
20145;BME280;10233;50.814;6.590;2023-05-12T03:08:49;100044.22;;;14.07;100.00
20145;BME280;10233;50.814;6.590;2023-05-12T03:09:50;100043.16;;;14.08;100.00
20145;BME280;10233;50.814;6.590;2023-05-12T03:10:51;100040.38;;;14.03;100.00
20145;BME280;10233;50.814;6.590;2023-05-12T03:11:51;100039.09;;;14.06;100.00
20145;BME280;10233;50.814;6.590;2023-05-12T03:12:53;100041.53;;;14.07;100.00
20145;BME280;10233;50.814;6.590;2023-05-12T03:13:54;100037.25;;;14.06;100.00
20145;BME280;10233;50.814;6.590;2023-05-12T03:14:54;100033.97;;;14.04;100.00
20145;BME280;10233;50.814;6.590;2023-05-12T03:15:56;100036.19;;;14.07;100.00
20145;BME280;10233;50.814;6.590;2023-05-12T03:17:00;100037.34;;;14.00;100.00
20145;BME280;10233;50.814;6.590;2023-05-12T03:18:01;100040.47;;;13.97;100.00
20145;BME280;10233;50.814;6.590;2023-05-12T03:19:03;100030.81;;;13.96;100.00
20145;BME280;10233;50.814;6.590;2023-05-12T03:20:05;100037.56;;;13.98;100.00
20145;BME280;10233;50.814;6.590;2023-05-12T03:21:05;100039.44;;;13.98;100.00
20145;BME280;10233;50.814;6.590;2023-05-12T03:22:06;100035.84;;;14.04;100.00
20145;BME280;10233;50.814;6.590;2023-05-12T03:23:08;100038.28;;;14.05;100.00
20145;BME280;10233;50.814;6.590;2023-05-12T03:24:09;100030.84;;;14.07;100.00
20145;BME280;10233;50.814;6.590;2023-05-12T03:25:09;100033.53;;;14.07;100.00
20145;BME280;10233;50.814;6.590;2023-05-12T03:26:10;100031.19;;;14.11;100.00
20145;BME280;10233;50.814;6.590;2023-05-12T03:27:11;100024.13;;;14.16;100.00
20145;BME280;10233;50.814;6.590;2023-05-12T03:28:12;100026.72;;;14.23;100.00
20145;BME280;10233;50.814;6.590;2023-05-12T03:29:13;100028.88;;;14.14;100.00
20145;BME280;10233;50.814;6.590;2023-05-12T03:30:13;100033.66;;;14.12;100.00
20145;BME280;10233;50.814;6.590;2023-05-12T03:31:14;100023.19;;;14.11;100.00
20145;BME280;10233;50.814;6.590;2023-05-12T03:32:14;100037.16;;;14.13;100.00
20145;BME280;10233;50.814;6.590;2023-05-12T03:33:16;100034.09;;;14.09;100.00
20145;BME280;10233;50.814;6.590;2023-05-12T03:34:17;100033.16;;;14.04;100.00
20145;BME280;10233;50.814;6.590;2023-05-12T03:35:18;100030.72;;;14.02;100.00
20145;BME280;10233;50.814;6.590;2023-05-12T03:36:19;100032.47;;;14.08;100.00
20145;BME280;10233;50.814;6.590;2023-05-12T03:37:20;100033.28;;;14.09;100.00
20145;BME280;10233;50.814;6.590;2023-05-12T03:38:20;100031.91;;;14.06;100.00
20145;BME280;10233;50.814;6.590;2023-05-12T03:39:21;100034.78;;;14.05;100.00
20145;BME280;10233;50.814;6.590;2023-05-12T03:40:26;100031.28;;;14.04;100.00
20145;BME280;10233;50.814;6.590;2023-05-12T03:41:26;100035.50;;;14.12;100.00
20145;BME280;10233;50.814;6.590;2023-05-12T03:42:27;100032.56;;;14.02;100.00
20145;BME280;10233;50.814;6.590;2023-05-12T03:43:28;100028.03;;;14.02;100.00
20145;BME280;10233;50.814;6.590;2023-05-12T03:44:28;100026.06;;;14.09;100.00
20145;BME280;10233;50.814;6.590;2023-05-12T03:45:30;100027.00;;;14.03;100.00
20145;BME280;10233;50.814;6.590;2023-05-12T03:46:31;100019.47;;;14.00;100.00
20145;BME280;10233;50.814;6.590;2023-05-12T03:47:33;100022.47;;;14.04;100.00
20145;BME280;10233;50.814;6.590;2023-05-12T03:48:35;100022.13;;;14.00;100.00
20145;BME280;10233;50.814;6.590;2023-05-12T03:49:35;100027.00;;;14.03;100.00
20145;BME280;10233;50.814;6.590;2023-05-12T03:50:36;100026.19;;;14.03;100.00
20145;BME280;10233;50.814;6.590;2023-05-12T03:51:37;100024.09;;;14.05;100.00
20145;BME280;10233;50.814;6.590;2023-05-12T03:52:38;100028.75;;;14.09;100.00
20145;BME280;10233;50.814;6.590;2023-05-12T03:53:40;100033.28;;;13.97;100.00
20145;BME280;10233;50.814;6.590;2023-05-12T03:54:44;100029.19;;;13.95;100.00
20145;BME280;10233;50.814;6.590;2023-05-12T03:55:45;100027.09;;;13.97;100.00
20145;BME280;10233;50.814;6.590;2023-05-12T03:56:45;100025.59;;;14.01;100.00
20145;BME280;10233;50.814;6.590;2023-05-12T03:57:47;100027.47;;;14.00;100.00
20145;BME280;10233;50.814;6.590;2023-05-12T03:58:48;100024.19;;;13.98;100.00
20145;BME280;10233;50.814;6.590;2023-05-12T03:59:50;100021.31;;;14.00;100.00
20145;BME280;10233;50.814;6.590;2023-05-12T04:00:51;100022.13;;;14.00;100.00
20145;BME280;10233;50.814;6.590;2023-05-12T04:01:51;100026.88;;;13.98;100.00
20145;BME280;10233;50.814;6.590;2023-05-12T04:02:55;100028.75;;;13.98;100.00
20145;BME280;10233;50.814;6.590;2023-05-12T04:03:55;100025.13;;;13.92;100.00
20145;BME280;10233;50.814;6.590;2023-05-12T04:04:56;100029.78;;;13.97;100.00
20145;BME280;10233;50.814;6.590;2023-05-12T04:06:00;100027.34;;;13.95;100.00
20145;BME280;10233;50.814;6.590;2023-05-12T04:07:01;100031.88;;;13.95;100.00
20145;BME280;10233;50.814;6.590;2023-05-12T04:08:02;100031.03;;;13.94;100.00
20145;BME280;10233;50.814;6.590;2023-05-12T04:09:03;100025.94;;;13.93;100.00
20145;BME280;10233;50.814;6.590;2023-05-12T04:10:04;100032.22;;;13.98;100.00
20145;BME280;10233;50.814;6.590;2023-05-12T04:11:04;100028.75;;;13.98;100.00
20145;BME280;10233;50.814;6.590;2023-05-12T04:12:05;100026.31;;;13.96;100.00
20145;BME280;10233;50.814;6.590;2023-05-12T04:13:06;100028.97;;;13.96;100.00
20145;BME280;10233;50.814;6.590;2023-05-12T04:14:07;100034.19;;;13.91;100.00
20145;BME280;10233;50.814;6.590;2023-05-12T04:15:10;100025.47;;;13.96;100.00
20145;BME280;10233;50.814;6.590;2023-05-12T04:16:11;100035.00;;;13.92;100.00
20145;BME280;10233;50.814;6.590;2023-05-12T04:17:11;100028.50;;;13.88;100.00
20145;BME280;10233;50.814;6.590;2023-05-12T04:18:12;100035.25;;;13.90;100.00
20145;BME280;10233;50.814;6.590;2023-05-12T04:19:13;100033.31;;;13.79;100.00
20145;BME280;10233;50.814;6.590;2023-05-12T04:20:14;100035.81;;;13.92;100.00
20145;BME280;10233;50.814;6.590;2023-05-12T04:21:15;100029.16;;;13.83;100.00
20145;BME280;10233;50.814;6.590;2023-05-12T04:22:16;100029.19;;;13.95;100.00
20145;BME280;10233;50.814;6.590;2023-05-12T04:23:17;100039.53;;;13.91;100.00
20145;BME280;10233;50.814;6.590;2023-05-12T04:24:18;100032.66;;;13.84;100.00
20145;BME280;10233;50.814;6.590;2023-05-12T04:25:19;100035.91;;;13.86;100.00
20145;BME280;10233;50.814;6.590;2023-05-12T04:26:19;100038.22;;;13.82;100.00
20145;BME280;10233;50.814;6.590;2023-05-12T04:27:21;100042.06;;;13.86;100.00
20145;BME280;10233;50.814;6.590;2023-05-12T04:28:21;100033.00;;;13.87;100.00
20145;BME280;10233;50.814;6.590;2023-05-12T04:29:22;100047.41;;;13.86;100.00
20145;BME280;10233;50.814;6.590;2023-05-12T04:30:23;100047.06;;;13.94;100.00
20145;BME280;10233;50.814;6.590;2023-05-12T04:31:24;100044.41;;;13.94;100.00
20145;BME280;10233;50.814;6.590;2023-05-12T04:32:25;100039.44;;;13.98;100.00
20145;BME280;10233;50.814;6.590;2023-05-12T04:33:26;100038.84;;;13.96;100.00
20145;BME280;10233;50.814;6.590;2023-05-12T04:34:27;100043.00;;;13.92;100.00
20145;BME280;10233;50.814;6.590;2023-05-12T04:35:29;100040.09;;;13.93;100.00
20145;BME280;10233;50.814;6.590;2023-05-12T04:36:29;100043.38;;;13.95;100.00
20145;BME280;10233;50.814;6.590;2023-05-12T04:37:30;100049.31;;;13.97;100.00
20145;BME280;10233;50.814;6.590;2023-05-12T04:38:31;100041.72;;;13.94;100.00
20145;BME280;10233;50.814;6.590;2023-05-12T04:39:32;100045.59;;;13.98;100.00
20145;BME280;10233;50.814;6.590;2023-05-12T04:40:32;100049.34;;;14.09;100.00
20145;BME280;10233;50.814;6.590;2023-05-12T04:41:33;100046.66;;;14.09;100.00
20145;BME280;10233;50.814;6.590;2023-05-12T04:42:35;100048.16;;;14.05;100.00
20145;BME280;10233;50.814;6.590;2023-05-12T04:43:36;100047.22;;;13.99;100.00
20145;BME280;10233;50.814;6.590;2023-05-12T04:44:37;100045.94;;;14.02;100.00
20145;BME280;10233;50.814;6.590;2023-05-12T04:45:37;100047.34;;;14.04;100.00
20145;BME280;10233;50.814;6.590;2023-05-12T04:46:38;100043.13;;;13.97;100.00
20145;BME280;10233;50.814;6.590;2023-05-12T04:47:39;100047.81;;;14.01;100.00
20145;BME280;10233;50.814;6.590;2023-05-12T04:48:40;100050.25;;;14.03;100.00
20145;BME280;10233;50.814;6.590;2023-05-12T04:49:42;100051.66;;;14.05;100.00
20145;BME280;10233;50.814;6.590;2023-05-12T04:50:43;100054.47;;;14.10;100.00
20145;BME280;10233;50.814;6.590;2023-05-12T04:51:44;100056.53;;;14.08;100.00
20145;BME280;10233;50.814;6.590;2023-05-12T04:52:44;100056.88;;;14.12;100.00
20145;BME280;10233;50.814;6.590;2023-05-12T04:53:45;100053.94;;;14.02;100.00
20145;BME280;10233;50.814;6.590;2023-05-12T04:54:46;100053.59;;;13.98;100.00
20145;BME280;10233;50.814;6.590;2023-05-12T04:55:47;100052.56;;;13.99;100.00
20145;BME280;10233;50.814;6.590;2023-05-12T04:56:50;100055.75;;;14.08;100.00
20145;BME280;10233;50.814;6.590;2023-05-12T04:57:50;100056.09;;;14.11;100.00
20145;BME280;10233;50.814;6.590;2023-05-12T04:58:51;100059.34;;;14.13;100.00
20145;BME280;10233;50.814;6.590;2023-05-12T04:59:52;100063.41;;;14.16;100.00
20145;BME280;10233;50.814;6.590;2023-05-12T05:00:52;100057.00;;;14.17;100.00
20145;BME280;10233;50.814;6.590;2023-05-12T05:01:53;100052.38;;;14.12;100.00
20145;BME280;10233;50.814;6.590;2023-05-12T05:02:53;100058.75;;;14.11;100.00
20145;BME280;10233;50.814;6.590;2023-05-12T05:03:54;100061.78;;;14.15;100.00
20145;BME280;10233;50.814;6.590;2023-05-12T05:04:55;100059.22;;;14.08;100.00
20145;BME280;10233;50.814;6.590;2023-05-12T05:05:58;100062.94;;;14.07;100.00
20145;BME280;10233;50.814;6.590;2023-05-12T05:06:58;100057.94;;;14.11;100.00
20145;BME280;10233;50.814;6.590;2023-05-12T05:07:59;100063.97;;;14.06;100.00
20145;BME280;10233;50.814;6.590;2023-05-12T05:09:01;100060.25;;;14.07;100.00
20145;BME280;10233;50.814;6.590;2023-05-12T05:10:02;100060.69;;;14.04;100.00
20145;BME280;10233;50.814;6.590;2023-05-12T05:11:04;100063.97;;;14.06;100.00
20145;BME280;10233;50.814;6.590;2023-05-12T05:12:05;100068.72;;;14.04;100.00
20145;BME280;10233;50.814;6.590;2023-05-12T05:13:06;100069.78;;;14.03;100.00
20145;BME280;10233;50.814;6.590;2023-05-12T05:14:07;100067.56;;;14.00;100.00
20145;BME280;10233;50.814;6.590;2023-05-12T05:15:09;100075.59;;;14.00;100.00
20145;BME280;10233;50.814;6.590;2023-05-12T05:16:11;100071.13;;;13.94;100.00
20145;BME280;10233;50.814;6.590;2023-05-12T05:17:12;100074.84;;;13.93;100.00